Ana Sayfa
METAR-TAF:

METAR-TAF

Havaalanları :

Chapleau, Ontario, Kanada

Enlem: 47-49N, Boylam: 083-21W, yükseklik: 447 m

Güncel hava durumu gözlemi

Rapor saat 01:00 UTC de 7 saat ve 13 dakika önce yapıldı.
Sakin rüzgar
Sıcaklık 2°C
Nem 80%
Basınç 1017 hPa
Görüş mesafesi: 24.1 km
Açık gökyüzü

METAR: CYLD 040100Z 00000KT 15SM SKC 02/M01 A3004 RMK LAST STFD OBS/NEXT 04 1000UTC SLP198

Saat: 04:13 (08:13 UTC)

Tahmin

Rapor saat 19:46 UTC de 12 saat ve 27 dakika önce yapıldı.
Ayın 03'si saat 20 UTC'den ayın 04'si saat 01 UTC'ye kadar geçerli Tahmin
Rüzgar kuzeydoğudan 5 kt
Görüş mesafesi: 10 km
2000 ft yükseklikte parçalı bulutlu
Dönüşüyor
ayın 03'si saat 20 UTC'den ayın 03'si saat 22 UTC'ye kadar
Rüzgar değişken yönden 3 kt

TAF: CYLD 031946Z 0320/0401 05005KT P6SM SCT020 BECMG 0320/0322 VRB03KT RMK NXT FCST WILL BE ISSUED AT 041145Z

4.000'den fazla havaalanı için hava durumu gözlemleri ve tahminleri (METAR ve TAF raporları).

Kullanılabilir istasyonlar harita üzerinde sarı ve kırmızı noktalarla gösterilir.

İstasyonun adını görmek için fareyi noktanın üzerinde gezdirin.

Sonrasında hava gözlem ve tahminlerini görmek için tıklayın.

Haritayı değiştirmek için: yaklaştırmak için siyah artı işaretli yeşil düğmeye ve uzaklaştırmak için de eksi işaretli düğmeye hızla tıklayın; bitişik haritalar için yeşil okları kullanın.


METAR-TAF: